Time;durP1;ratioP1;P1;durP2;ratioP2;P2;SDS_P1;SDS_P2;PMS_P1;PMS_P2;Temp;Humidity;BMP_temperature;BMP_pressure;BME280_temperature;BME280_humidity;BME280_pressure;Samples;Min_cycle;Max_cycle;Signal;HPM_P1;HPM_P2
2022/05/23 00:00:57;;;;;;;9.13;3.17;;;;;;;11.05;100.00;99103.88;7389441;19;20378;-61
2022/05/23 00:03:27;;;;;;;10.13;2.87;;;;;;;11.10;100.00;99103.94;7383621;19;20410;-60
2022/05/23 00:05:57;;;;;;;6.00;2.60;;;;;;;11.04;100.00;99101.25;7388863;19;20425;-60
2022/05/23 00:08:29;;;;;;;6.90;3.03;;;;;;;11.06;100.00;99102.13;7385257;19;21019;-60
2022/05/23 00:10:59;;;;;;;5.27;2.70;;;;;;;11.08;100.00;99092.72;7389907;19;20415;-59
2022/05/23 00:13:29;;;;;;;9.77;3.90;;;;;;;11.14;100.00;99089.34;7386787;19;20415;-59
2022/05/23 00:15:59;;;;;;;4.73;2.83;;;;;;;11.09;100.00;99091.88;7396861;19;20417;-60
2022/05/23 00:18:29;;;;;;;9.83;5.47;;;;;;;11.11;100.00;99097.03;7392317;19;20420;-59
2022/05/23 00:20:59;;;;;;;7.23;2.73;;;;;;;11.18;100.00;99096.28;7397175;19;20384;-61
2022/05/23 00:23:31;;;;;;;7.07;2.70;;;;;;;11.15;100.00;99091.94;7389557;19;20416;-61
2022/05/23 00:26:00;;;;;;;5.77;2.90;;;;;;;11.03;100.00;99084.06;7396449;19;20416;-60
2022/05/23 00:28:30;;;;;;;7.27;3.30;;;;;;;10.99;100.00;99083.16;7392939;19;20416;-61
2022/05/23 00:30:59;;;;;;;6.40;2.57;;;;;;;10.97;100.00;99084.81;7398226;19;20926;-60
2022/05/23 00:36:11;;;;;;;6.87;2.63;;;;;;;11.01;100.00;99080.56;7401094;19;20430;-61
2022/05/23 00:38:43;;;;;;;8.03;2.80;;;;;;;10.99;100.00;99085.72;7394675;19;20458;-61
2022/05/23 00:44:07;;;;;;;7.13;2.20;;;;;;;11.07;100.00;99078.06;7393555;19;20501;-61
2022/05/23 00:46:37;;;;;;;5.10;2.63;;;;;;;10.94;100.00;99071.88;7396665;19;20424;-59
2022/05/23 00:49:08;;;;;;;7.30;3.00;;;;;;;10.98;100.00;99071.06;7393655;19;20760;-60
2022/05/23 00:51:37;;;;;;;6.33;2.57;;;;;;;10.98;100.00;99062.47;7400794;19;20419;-60
2022/05/23 00:54:09;;;;;;;7.67;2.47;;;;;;;10.90;100.00;99063.25;7393321;19;20420;-60
2022/05/23 00:56:43;;;;;;;6.30;2.60;;;;;;;10.93;100.00;99067.59;7397163;19;20412;-60
2022/05/23 00:59:15;;;;;;;5.63;2.50;;;;;;;10.93;100.00;99063.28;7376315;19;20420;-61
2022/05/23 01:01:45;;;;;;;8.20;3.80;;;;;;;11.00;100.00;99058.19;7396884;19;20384;-60
2022/05/23 01:04:15;;;;;;;7.60;3.50;;;;;;;10.96;100.00;99053.84;7392494;19;20417;-60
2022/05/23 01:06:44;;;;;;;9.63;3.00;;;;;;;10.92;100.00;99055.53;7395651;19;20408;-59
2022/05/23 01:09:16;;;;;;;6.63;2.40;;;;;;;10.89;100.00;99048.63;7366633;19;20769;-60
2022/05/23 01:11:46;;;;;;;6.80;2.90;;;;;;;10.80;100.00;99048.47;7397821;19;20391;-61
2022/05/23 01:14:15;;;;;;;5.90;2.43;;;;;;;10.84;100.00;99049.38;7371329;19;20424;-58
2022/05/23 01:16:45;;;;;;;6.30;2.27;;;;;;;10.80;100.00;99051.06;7396331;19;20426;-60
2022/05/23 01:19:14;;;;;;;6.67;2.90;;;;;;;10.77;100.00;99043.28;7392940;19;20408;-60
2022/05/23 01:21:51;;;;;;;6.87;2.33;;;;;;;10.77;100.00;99041.56;7396049;19;21232;-61
2022/05/23 01:24:27;;;;;;;7.93;3.00;;;;;;;10.82;100.00;99044.19;7390452;19;20425;-58
2022/05/23 01:29:45;;;;;;;6.90;2.23;;;;;;;10.88;100.00;99033.94;7392519;19;20801;-59
2022/05/23 01:32:15;;;;;;;7.63;2.33;;;;;;;10.83;100.00;99039.91;7374273;19;20381;-60
2022/05/23 01:34:44;;;;;;;4.50;2.63;;;;;;;10.81;100.00;99032.16;7396829;19;20380;-60
2022/05/23 01:37:14;;;;;;;9.10;2.90;;;;;;;10.93;100.00;99034.88;7361941;19;20424;-59
2022/05/23 01:39:43;;;;;;;8.40;2.90;;;;;;;10.97;100.00;99030.63;7395802;19;20457;-60
2022/05/23 01:42:16;;;;;;;4.83;2.40;;;;;;;10.96;100.00;99028.06;7389613;19;20393;-60
2022/05/23 01:44:45;;;;;;;8.20;2.90;;;;;;;10.92;100.00;99029.72;7396537;19;20407;-61
2022/05/23 01:47:17;;;;;;;7.73;2.83;;;;;;;10.90;100.00;99027.13;7361924;19;20419;-60
2022/05/23 01:49:47;;;;;;;6.77;3.13;;;;;;;10.88;100.00;99021.06;7395575;19;20393;-61
2022/05/23 01:52:16;;;;;;;6.10;2.60;;;;;;;11.05;100.00;99025.56;7381565;19;20392;-60
2022/05/23 01:54:46;;;;;;;4.00;2.50;;;;;;;10.98;100.00;99019.44;7396154;19;20402;-58
2022/05/23 01:57:18;;;;;;;5.90;2.80;;;;;;;10.97;100.00;99014.28;7389849;19;20445;-59
2022/05/23 02:02:29;;;;;;;4.30;2.50;;;;;;;11.06;100.00;98998.91;7375639;19;20419;-59
2022/05/23 02:04:59;;;;;;;8.00;3.10;;;;;;;11.00;100.00;98996.25;7400003;19;20748;-60
2022/05/23 02:07:29;;;;;;;8.10;2.90;;;;;;;10.98;100.00;98993.66;7381146;19;20406;-59
2022/05/23 02:09:58;;;;;;;7.93;2.70;;;;;;;10.94;100.00;98991.91;7396684;19;20390;-60
2022/05/23 02:12:30;;;;;;;6.50;3.00;;;;;;;10.90;100.00;98995.28;7379916;19;20417;-60
2022/05/23 02:15:00;;;;;;;9.60;2.80;;;;;;;10.80;100.00;98994.31;7395629;19;20410;-60
2022/05/23 02:17:30;;;;;;;12.30;3.00;;;;;;;10.83;100.00;98996.06;7389418;19;20417;-58
2022/05/23 02:20:00;;;;;;;6.90;2.60;;;;;;;10.70;100.00;98990.75;7396293;19;20943;-61
2022/05/23 02:22:29;;;;;;;6.70;3.20;;;;;;;10.76;100.00;98992.53;7384134;19;20410;-60
2022/05/23 02:24:59;;;;;;;5.70;2.90;;;;;;;10.78;100.00;98986.53;7395325;19;20384;-60
2022/05/23 02:27:31;;;;;;;9.83;3.07;;;;;;;10.82;100.00;98982.28;7375926;19;20403;-60
2022/05/23 02:30:00;;;;;;;6.13;2.37;;;;;;;10.98;100.00;98983.31;7396342;19;20414;-61
2022/05/23 02:32:30;;;;;;;6.70;2.90;;;;;;;10.85;100.00;98972.00;7377556;19;20470;-60
2022/05/23 02:34:59;;;;;;;8.63;3.20;;;;;;;10.87;100.00;98982.34;7394121;19;20394;-60
2022/05/23 02:37:29;;;;;;;6.60;2.90;;;;;;;10.89;100.00;98972.91;7371304;19;20407;-60
2022/05/23 02:39:58;;;;;;;7.33;2.90;;;;;;;10.79;100.00;98974.50;7395915;19;20384;-61
2022/05/23 02:42:30;;;;;;;9.13;3.17;;;;;;;10.81;100.00;98967.66;7371323;19;20951;-59
2022/05/23 02:45:00;;;;;;;4.87;3.00;;;;;;;10.83;100.00;98965.97;7394589;19;20391;-60
2022/05/23 02:47:29;;;;;;;5.57;2.87;;;;;;;10.67;100.00;98959.75;7385859;19;20396;-60
2022/05/23 02:49:59;;;;;;;8.53;3.07;;;;;;;10.67;100.00;98958.03;7395669;19;20745;-60
2022/05/23 02:52:29;;;;;;;6.23;2.77;;;;;;;10.52;100.00;98956.13;7368681;19;20494;-60
2022/05/23 02:54:58;;;;;;;4.90;2.87;;;;;;;10.50;100.00;98960.41;7393698;19;20406;-60
2022/05/23 02:57:30;;;;;;;6.03;3.00;;;;;;;10.46;100.00;98962.94;7371583;19;20403;-60
2022/05/23 03:00:00;;;;;;;5.70;3.00;;;;;;;10.42;100.00;98958.53;7395231;19;20395;-60
2022/05/23 03:05:12;;;;;;;6.83;3.50;;;;;;;10.59;100.00;98967.41;7393921;19;20399;-60
2022/05/23 03:07:41;;;;;;;4.90;3.13;;;;;;;10.55;100.00;98957.88;7363832;19;20491;-61
2022/05/23 03:10:11;;;;;;;6.33;3.30;;;;;;;10.53;100.00;98962.16;7393488;19;20395;-59
2022/05/23 03:12:44;;;;;;;6.23;2.70;;;;;;;10.51;100.00;98958.69;7390567;19;20418;-61
2022/05/23 03:15:14;;;;;;;6.77;2.97;;;;;;;10.51;100.00;98956.13;7393360;19;20423;-60
2022/05/23 03:17:44;;;;;;;6.50;3.30;;;;;;;10.37;100.00;98958.47;7370284;19;20765;-61
2022/05/23 03:20:14;;;;;;;3.67;2.40;;;;;;;10.35;100.00;98963.59;7394427;19;20391;-61
2022/05/23 03:28:11;;;;;;;7.53;2.60;;;;;;;10.29;100.00;98960.94;7382402;19;20429;-61
2022/05/23 03:30:40;;;;;;;3.97;2.77;;;;;;;10.32;100.00;98966.16;7393966;19;20395;-60
2022/05/23 03:33:11;;;;;;;6.30;2.90;;;;;;;10.37;100.00;98964.47;7381985;19;20407;-60
2022/05/23 03:35:41;;;;;;;8.50;3.10;;;;;;;10.37;100.00;98958.47;7392405;19;20449;-60
2022/05/23 03:38:11;;;;;;;5.00;3.17;;;;;;;10.47;100.00;98951.75;7388579;19;20415;-60
2022/05/23 03:40:42;;;;;;;4.53;2.70;;;;;;;10.55;100.00;98946.72;7393685;19;20388;-59
2022/05/23 03:43:14;;;;;;;6.07;3.07;;;;;;;10.55;100.00;98938.97;7381702;19;20772;-61
2022/05/23 03:45:44;;;;;;;9.03;3.23;;;;;;;10.32;100.00;98937.78;7391832;19;21278;-61
2022/05/23 03:48:14;;;;;;;5.93;3.00;;;;;;;10.22;100.00;98941.06;7354520;19;20411;-58
2022/05/23 03:50:44;;;;;;;5.70;3.03;;;;;;;10.14;100.00;98940.97;7392079;19;20395;-56
2022/05/23 03:53:14;;;;;;;6.90;2.80;;;;;;;10.07;100.00;98940.03;7370598;19;20431;-60
2022/05/23 03:55:43;;;;;;;12.17;4.17;;;;;;;10.06;100.00;98953.72;7392124;19;20448;-60
2022/05/23 03:58:15;;;;;;;6.60;3.13;;;;;;;10.08;100.00;98949.47;7381004;19;20416;-60
2022/05/23 04:00:49;;;;;;;7.80;3.33;;;;;;;10.03;100.00;98942.50;7393139;19;20393;-58
2022/05/23 04:03:19;;;;;;;8.50;3.00;;;;;;;10.02;100.00;98941.66;7385867;19;20781;-60
2022/05/23 04:05:48;;;;;;;6.80;2.73;;;;;;;10.03;100.00;98925.34;7391278;19;20414;-58
2022/05/23 04:08:18;;;;;;;7.23;3.30;;;;;;;10.07;100.00;98928.84;7387605;19;20403;-60
2022/05/23 04:10:47;;;;;;;5.73;2.90;;;;;;;10.04;100.00;98924.50;7392288;19;20380;-59
2022/05/23 04:13:19;;;;;;;5.53;2.60;;;;;;;10.01;100.00;98924.47;7387035;19;20781;-60
2022/05/23 04:15:49;;;;;;;9.20;3.30;;;;;;;10.06;100.00;98924.53;7391270;19;20415;-61
2022/05/23 04:18:19;;;;;;;4.60;2.67;;;;;;;10.08;100.00;98915.97;7387340;19;20943;-60
2022/05/23 04:20:49;;;;;;;6.20;2.70;;;;;;;10.05;100.00;98913.34;7392374;19;20408;-56
2022/05/23 04:23:19;;;;;;;6.40;2.50;;;;;;;10.08;100.00;98910.84;7386331;19;20449;-59
2022/05/23 04:25:50;;;;;;;5.90;2.97;;;;;;;10.09;100.00;98912.56;7391089;19;20747;-60
2022/05/23 04:28:23;;;;;;;4.70;2.67;;;;;;;10.13;100.00;98904.03;7385571;19;20491;-59
2022/05/23 04:30:52;;;;;;;7.20;2.83;;;;;;;10.16;100.00;98894.59;7391746;19;20398;-61
2022/05/23 04:36:04;;;;;;;5.17;2.83;;;;;;;10.18;100.00;98891.19;7391407;19;20386;-60
2022/05/23 04:38:33;;;;;;;6.10;2.77;;;;;;;10.20;100.00;98879.19;7386325;19;20411;-61
2022/05/23 04:41:03;;;;;;;4.80;2.87;;;;;;;10.22;100.00;98868.91;7391990;19;20754;-60
2022/05/23 04:43:35;;;;;;;6.87;2.57;;;;;;;10.20;100.00;98865.47;7383922;19;20461;-59
2022/05/23 04:46:05;;;;;;;6.50;2.70;;;;;;;10.23;100.00;98870.63;7390379;19;20412;-58
2022/05/23 04:51:16;;;;;;;5.87;2.30;;;;;;;10.33;100.00;98859.63;7391815;19;20395;-60
2022/05/23 04:53:49;;;;;;;5.97;2.60;;;;;;;10.39;100.00;98858.81;7374123;19;20431;-60
2022/05/23 04:56:18;;;;;;;5.37;3.13;;;;;;;10.48;100.00;98852.94;7390609;19;20426;-60
2022/05/23 04:58:51;;;;;;;7.43;3.43;;;;;;;10.55;100.00;98848.72;7379517;19;20421;-60
2022/05/23 05:01:21;;;;;;;4.70;2.40;;;;;;;10.60;100.00;98847.03;7398717;19;20390;-61
2022/05/23 05:03:53;;;;;;;5.00;2.60;;;;;;;10.66;100.00;98842.81;7381821;19;20834;-59
2022/05/23 05:06:23;;;;;;;7.60;2.67;;;;;;;10.75;100.00;98836.91;7399010;19;20423;-60
2022/05/23 05:08:53;;;;;;;6.23;2.40;;;;;;;10.94;100.00;98837.94;7392659;19;20487;-60
2022/05/23 05:11:22;;;;;;;4.93;2.27;;;;;;;11.07;100.00;98835.47;7399149;19;20393;-61
2022/05/23 05:13:54;;;;;;;5.53;2.13;;;;;;;11.19;100.00;98835.56;7394718;19;20453;-61
2022/05/23 05:16:24;;;;;;;7.77;2.07;;;;;;;11.38;100.00;98838.31;7397206;19;20403;-60
2022/05/23 05:19:00;;;;;;;7.33;2.50;;;;;;;11.53;100.00;98832.41;7392296;19;20754;-60
2022/05/23 05:21:30;;;;;;;7.17;1.83;;;;;;;11.65;100.00;98836.81;7397322;19;20469;-61
2022/05/23 05:23:59;;;;;;;5.53;2.20;;;;;;;11.75;100.00;98848.06;7388797;19;20464;-61
2022/05/23 05:26:29;;;;;;;5.40;2.00;;;;;;;11.88;100.00;98859.31;7396272;19;20418;-58
2022/05/23 05:29:01;;;;;;;6.17;2.50;;;;;;;11.99;100.00;98873.16;7392152;19;20414;-61
2022/05/23 05:31:35;;;;;;;5.07;1.83;;;;;;;12.05;100.00;98881.84;7397494;19;20932;-59
2022/05/23 05:34:08;;;;;;;5.80;2.07;;;;;;;12.14;100.00;98902.56;7385086;19;20418;-61
2022/05/23 05:36:41;;;;;;;6.53;2.57;;;;;;;12.20;100.00;98918.13;7395893;19;20433;-58
2022/05/23 05:39:11;;;;;;;6.27;2.47;;;;;;;12.33;100.00;98929.41;7392240;19;20985;-60
2022/05/23 05:41:45;;;;;;;3.50;1.67;;;;;;;12.42;100.00;98941.53;7396427;19;20402;-60
2022/05/23 05:44:21;;;;;;;5.60;1.63;;;;;;;12.56;100.00;98938.97;7389851;19;20515;-59
2022/05/23 05:46:53;;;;;;;6.13;1.80;;;;;;;12.59;100.00;98958.84;7395320;19;20955;-60
2022/05/23 05:49:45;;;;;;;6.47;1.70;;;;;;;12.73;100.00;98984.78;7393669;19;20408;-61
2022/05/23 05:52:16;;;;;;;5.07;1.80;;;;;;;13.00;100.00;98999.56;7391532;19;20388;-59
2022/05/23 05:54:45;;;;;;;4.67;2.10;;;;;;;13.09;100.00;99033.25;7396419;19;20393;-60
2022/05/23 05:57:15;;;;;;;6.10;2.10;;;;;;;13.24;100.00;99035.03;7388578;19;20427;-59
2022/05/23 05:59:49;;;;;;;3.93;2.10;;;;;;;13.22;100.00;99108.38;7396187;19;20405;-57
2022/05/23 06:02:19;;;;;;;4.70;2.00;;;;;;;13.29;100.00;99141.25;7391281;19;20391;-60
2022/05/23 06:04:48;;;;;;;5.23;1.80;;;;;;;13.42;100.00;99167.19;7394422;19;20761;-60
2022/05/23 06:12:49;;;;;;;5.50;1.80;;;;;;;14.21;100.00;99210.69;7379297;19;20944;-61
2022/05/23 06:15:21;;;;;;;7.80;1.63;;;;;;;14.07;100.00;99237.47;7394801;19;20401;-60
2022/05/23 06:17:52;;;;;;;9.13;1.77;;;;;;;14.14;100.00;99267.75;7390187;19;20740;-61
2022/05/23 06:20:23;;;;;;;3.23;1.87;;;;;;;14.16;100.00;99278.97;7395905;19;20390;-60
2022/05/23 06:22:52;;;;;;;3.13;1.70;;;;;;;14.14;100.00;99309.22;7389488;19;20968;-61
2022/05/23 06:25:23;;;;;;;4.60;1.93;;;;;;;14.12;100.00;99342.09;7393575;19;20415;-60
2022/05/23 06:27:52;;;;;;;8.47;1.70;;;;;;;14.13;100.00;99322.19;7389549;19;20409;-59
2022/05/23 06:30:25;;;;;;;7.20;2.30;;;;;;;14.17;100.00;99310.97;7395965;19;20387;-60
2022/05/23 06:32:54;;;;;;;5.60;1.80;;;;;;;14.21;100.00;99304.06;7389303;19;20777;-61
2022/05/23 06:35:24;;;;;;;6.90;1.80;;;;;;;14.16;100.00;99327.41;7394498;19;20925;-60
2022/05/23 06:37:53;;;;;;;6.80;1.70;;;;;;;14.25;100.00;99352.50;7390347;19;20411;-60
2022/05/23 06:40:23;;;;;;;3.17;1.20;;;;;;;14.29;100.00;99385.38;7395740;19;20384;-60
2022/05/23 06:42:52;;;;;;;4.73;1.50;;;;;;;14.28;100.00;99399.22;7389687;19;20411;-60
2022/05/23 06:45:25;;;;;;;6.70;1.87;;;;;;;14.26;100.00;99416.50;7393152;19;20421;-60
2022/05/23 06:47:54;;;;;;;4.23;1.97;;;;;;;14.30;100.00;99428.59;7390066;19;20416;-61
2022/05/23 06:50:24;;;;;;;6.80;2.00;;;;;;;14.33;100.00;99441.63;7394689;19;20728;-60
2022/05/23 06:52:53;;;;;;;4.80;1.70;;;;;;;14.43;100.00;99456.38;7382787;19;20442;-61
2022/05/23 06:55:23;;;;;;;13.60;2.17;;;;;;;14.58;100.00;99434.78;7394393;19;20413;-60
2022/05/23 06:57:52;;;;;;;5.20;1.53;;;;;;;14.69;100.00;99436.56;7382034;19;20422;-61
2022/05/23 07:00:25;;;;;;;6.30;1.70;;;;;;;14.90;100.00;99446.19;7394794;19;20409;-60
2022/05/23 07:02:54;;;;;;;5.40;1.77;;;;;;;15.02;100.00;99471.34;7382659;19;20410;-59
2022/05/23 07:13:30;;;;;;;5.27;1.40;;;;;;;15.44;100.00;99564.13;7391378;19;20806;-58
2022/05/23 07:16:03;;;;;;;5.07;2.53;;;;;;;15.50;100.00;99588.38;7396139;19;20419;-61
2022/05/23 07:18:32;;;;;;;6.10;1.83;;;;;;;15.65;100.00;99592.75;7391276;19;20449;-61
2022/05/23 07:21:03;;;;;;;4.70;1.30;;;;;;;15.63;100.00;99635.22;7397974;19;20382;-61
2022/05/23 07:23:32;;;;;;;5.40;2.00;;;;;;;15.71;100.00;99623.13;7389430;19;20509;-61
2022/05/23 07:26:02;;;;;;;7.87;2.57;;;;;;;15.73;100.00;99623.09;7395345;19;20429;-61
2022/05/23 07:28:31;;;;;;;5.57;2.03;;;;;;;15.84;100.00;99630.94;7387038;19;20408;-61
2022/05/23 07:31:04;;;;;;;4.30;1.57;;;;;;;16.00;100.00;99648.34;7393604;19;20439;-61
2022/05/23 07:33:34;;;;;;;6.73;2.33;;;;;;;16.10;100.00;99661.38;7387763;19;20415;-61
2022/05/23 07:36:04;;;;;;;3.90;1.60;;;;;;;16.25;100.00;99645.78;7392954;19;20432;-60
2022/05/23 07:38:34;;;;;;;6.03;1.70;;;;;;;16.22;100.00;99652.72;7387256;19;20413;-60
2022/05/23 07:41:04;;;;;;;4.27;1.73;;;;;;;16.29;100.00;99652.72;7391820;19;20386;-60
2022/05/23 07:43:35;;;;;;;5.43;1.43;;;;;;;16.30;100.00;99695.22;7380778;19;20423;-61
2022/05/23 07:46:09;;;;;;;5.77;1.87;;;;;;;16.40;100.00;99716.94;7391541;19;20772;-61
2022/05/23 07:48:40;;;;;;;3.87;1.57;;;;;;;16.42;100.00;99729.06;7387450;19;20998;-61
2022/05/23 07:51:11;;;;;;;3.70;1.60;;;;;;;16.56;100.00;99726.47;7393137;19;20384;-61
2022/05/23 08:01:50;;;;;;;5.23;1.40;;;;;;;16.64;100.00;99786.38;7396119;19;20407;-61
2022/05/23 08:04:20;;;;;;;5.00;1.90;;;;;;;16.77;100.00;99762.97;7364031;19;20412;-61
2022/05/23 08:06:50;;;;;;;8.00;2.27;;;;;;;16.85;100.00;99792.47;7390403;19;20422;-60
2022/05/23 08:09:20;;;;;;;10.27;2.33;;;;;;;16.92;100.00;99794.22;7357739;19;20422;-61
2022/05/23 08:11:52;;;;;;;5.23;2.00;;;;;;;17.03;100.00;99809.91;7392271;19;20903;-61
2022/05/23 08:14:22;;;;;;;5.40;2.00;;;;;;;17.17;100.00;99829.88;7369485;19;20416;-61
2022/05/23 08:16:55;;;;;;;5.00;2.40;;;;;;;17.25;100.00;99838.53;7394928;19;20987;-61
2022/05/23 08:19:24;;;;;;;7.30;1.63;;;;;;;17.32;100.00;99845.50;7386781;19;20412;-60
2022/05/23 08:21:57;;;;;;;5.50;2.07;;;;;;;17.37;100.00;99875.03;7393103;19;20393;-61
2022/05/23 08:24:26;;;;;;;6.00;1.80;;;;;;;17.36;100.00;99872.44;7384972;19;20818;-60
2022/05/23 08:26:56;;;;;;;6.77;2.17;;;;;;;17.44;100.00;99890.69;7389507;19;20418;-61
2022/05/23 08:29:25;;;;;;;5.30;1.97;;;;;;;17.55;100.00;99928.06;7380420;19;20499;-60
2022/05/23 08:31:58;;;;;;;6.63;2.40;;;;;;;17.54;100.00;99955.00;7392325;19;20419;-61
2022/05/23 08:34:31;;;;;;;3.93;1.80;;;;;;;17.55;100.00;99946.31;7376613;19;20429;-60
2022/05/23 08:37:03;;;;;;;5.93;1.90;;;;;;;17.69;100.00;99969.75;7397328;19;20425;-60
2022/05/23 08:39:32;;;;;;;14.80;2.60;;;;;;;17.72;100.00;99981.94;7397230;19;20440;-61
2022/05/23 08:42:08;;;;;;;5.10;1.90;;;;;;;17.72;100.00;99994.97;7399211;19;20929;-61
2022/05/23 08:44:44;;;;;;;8.10;1.87;;;;;;;17.93;100.00;99983.66;7396946;19;20421;-61
2022/05/23 08:47:19;;;;;;;5.07;1.87;;;;;;;17.89;100.00;100011.50;7390525;19;20829;-61
2022/05/23 08:49:55;;;;;;;5.57;1.80;;;;;;;17.99;100.00;100004.53;7398488;19;20390;-58
2022/05/23 08:52:31;;;;;;;4.43;2.10;;;;;;;17.80;100.00;100014.13;7391550;19;20426;-61
2022/05/23 08:55:09;;;;;;;10.20;2.30;;;;;;;17.74;100.00;100014.13;7398410;19;20390;-61
2022/05/23 08:57:44;;;;;;;5.77;2.23;;;;;;;18.04;100.00;99994.97;7393282;19;20406;-60
2022/05/23 09:00:17;;;;;;;4.07;1.73;;;;;;;18.11;100.00;100008.03;7398087;19;20401;-61
2022/05/23 09:02:51;;;;;;;5.40;2.10;;;;;;;18.42;100.00;100000.16;7392725;19;20425;-60
2022/05/23 09:05:23;;;;;;;5.43;1.90;;;;;;;18.55;100.00;100025.34;7397339;19;20437;-61
2022/05/23 09:08:16;;;;;;;4.13;1.70;;;;;;;18.77;100.00;100020.09;7392771;19;20414;-61
2022/05/23 09:10:54;;;;;;;6.20;1.87;;;;;;;19.00;100.00;100026.94;7398157;19;20400;-61
2022/05/23 09:13:27;;;;;;;4.70;1.90;;;;;;;19.06;100.00;100033.94;7381167;19;20488;-61
2022/05/23 09:16:03;;;;;;;5.47;1.90;;;;;;;18.79;100.00;100064.47;7397095;19;20419;-60
2022/05/23 09:18:43;;;;;;;4.10;2.10;;;;;;;18.80;100.00;100066.19;7386928;19;20453;-61
2022/05/23 09:21:13;;;;;;;8.93;2.20;;;;;;;19.12;100.00;100073.13;7403075;19;20398;-61
2022/05/23 09:23:47;;;;;;;7.47;2.00;;;;;;;19.17;100.00;100089.63;7385635;19;20425;-61
2022/05/23 09:26:22;;;;;;;10.07;3.00;;;;;;;19.16;100.00;100093.13;7396281;19;20830;-61
2022/05/23 09:28:53;;;;;;;8.17;2.13;;;;;;;19.47;100.00;100095.56;7385596;19;20498;-61
2022/05/23 09:31:30;;;;;;;8.53;1.90;;;;;;;19.61;100.00;100098.13;7398159;19;20403;-61
2022/05/23 09:34:03;;;;;;;10.60;3.03;;;;;;;19.66;100.00;100111.16;7384092;19;20446;-61
2022/05/23 09:36:36;;;;;;;6.60;2.10;;;;;;;19.68;100.00;100114.63;7395534;19;20391;-62
2022/05/23 09:39:08;;;;;;;5.80;1.90;;;;;;;19.70;100.00;100112.91;7390965;19;20429;-61
2022/05/23 09:50:13;;;;;;;6.03;2.70;;;;;;;19.80;100.00;100098.84;7395193;19;20394;-59
2022/05/23 09:53:03;;;;;;;8.03;2.93;;;;;;;19.84;100.00;100097.97;7387108;19;20418;-60
2022/05/23 09:55:35;;;;;;;5.60;2.00;;;;;;;19.94;100.00;100087.44;7395333;19;20449;-59
2022/05/23 09:58:06;;;;;;;4.50;2.07;;;;;;;20.12;100.00;100090.81;7391025;19;20514;-58
2022/05/23 10:00:37;;;;;;;6.77;2.30;;;;;;;20.12;100.00;100082.94;7396782;19;20388;-54
2022/05/23 10:03:13;;;;;;;9.70;2.00;;;;;;;20.35;100.00;100091.47;7384323;19;20415;-60
2022/05/23 10:05:50;;;;;;;8.00;2.57;;;;;;;20.39;100.00;100087.06;7394991;19;21033;-60
2022/05/23 10:08:36;;;;;;;5.10;2.00;;;;;;;20.33;100.00;100082.78;7390848;19;20490;-59
2022/05/23 10:11:08;;;;;;;6.97;2.60;;;;;;;20.41;100.00;100084.44;7395648;19;21001;-59
2022/05/23 10:13:39;;;;;;;6.87;2.37;;;;;;;20.27;100.00;100085.44;7366035;19;20510;-60
2022/05/23 10:16:17;;;;;;;6.17;2.60;;;;;;;20.39;100.00;100100.16;7395507;19;20411;-58
2022/05/23 10:18:49;;;;;;;5.73;2.10;;;;;;;19.67;100.00;100097.19;7390332;19;20402;-60
2022/05/23 10:21:28;;;;;;;7.40;2.40;;;;;;;19.73;100.00;100093.69;7396586;19;20499;-60
2022/05/23 10:24:08;;;;;;;7.17;2.77;;;;;;;20.02;100.00;100084.78;7389763;19;20407;-57
2022/05/23 10:26:45;;;;;;;8.37;3.30;;;;;;;20.24;100.00;100095.94;7394144;19;20437;-57
2022/05/23 10:29:20;;;;;;;13.80;2.47;;;;;;;20.31;100.00;100079.28;7382428;19;20490;-59
2022/05/23 10:31:52;;;;;;;10.20;2.50;;;;;;;20.39;100.00;100076.59;7395970;19;20394;-54
2022/05/23 10:34:34;;;;;;;8.10;3.27;;;;;;;20.26;100.00;100080.22;7377402;19;20495;-55
2022/05/23 10:37:12;;;;;;;10.87;3.27;;;;;;;20.53;100.00;100086.06;7377700;19;20431;-61
2022/05/23 10:42:33;;;;;;;6.73;2.10;;;;;;;20.49;100.00;100066.88;7389466;19;20478;-57
2022/05/23 10:45:24;;;;;;;8.20;2.90;;;;;;;20.73;100.00;100054.41;7394154;19;20480;-60
2022/05/23 10:48:11;;;;;;;8.97;2.37;;;;;;;20.69;100.00;100058.81;7379597;19;20758;-58
2022/05/23 10:50:49;;;;;;;7.20;2.80;;;;;;;20.88;100.00;100059.50;7395746;19;20937;-56
2022/05/23 10:53:28;;;;;;;8.33;2.70;;;;;;;20.43;100.00;100067.84;7383063;19;20418;-59
2022/05/23 10:56:05;;;;;;;6.87;2.63;;;;;;;20.96;100.00;100053.31;7394388;19;20414;-60
2022/05/23 10:58:40;;;;;;;6.97;2.40;;;;;;;21.09;100.00;100054.88;7387693;19;20820;-60
2022/05/23 11:01:21;;;;;;;6.43;2.90;;;;;;;20.93;100.00;100061.19;7394592;19;20383;-55
2022/05/23 11:03:56;;;;;;;4.30;2.20;;;;;;;20.87;100.00;100055.13;7387357;19;20490;-60
2022/05/23 11:06:30;;;;;;;8.50;2.93;;;;;;;20.95;100.00;100048.94;7391743;19;20456;-58
2022/05/23 11:09:08;;;;;;;9.70;2.67;;;;;;;20.65;100.00;100036.16;7381280;19;20977;-60
2022/05/23 11:11:54;;;;;;;5.90;2.53;;;;;;;20.48;100.00;100044.19;7397845;19;20387;-58
2022/05/23 11:14:32;;;;;;;8.33;2.83;;;;;;;20.89;100.00;100035.03;7381862;19;20441;-60
2022/05/23 11:17:06;;;;;;;12.47;2.97;;;;;;;21.20;100.00;100025.88;7396465;19;20446;-59
2022/05/23 11:19:47;;;;;;;8.90;2.70;;;;;;;21.44;100.00;100015.94;7393402;19;20453;-59
2022/05/23 11:22:20;;;;;;;8.73;2.60;;;;;;;21.51;100.00;100021.94;7375173;19;20402;-58
2022/05/23 11:24:59;;;;;;;6.93;2.30;;;;;;;21.63;100.00;100015.66;7396202;19;20396;-60
2022/05/23 11:35:48;;;;;;;4.73;2.33;;;;;;;21.51;97.56;100016.69;7392539;19;20439;-60
2022/05/23 11:38:20;;;;;;;8.17;2.80;;;;;;;21.44;97.09;100014.16;7388611;19;20426;-56
2022/05/23 11:54:06;;;;;;;10.30;2.73;;;;;;;21.08;98.42;99998.09;7268027;19;2921099;-60
2022/05/23 11:56:40;;;;;;;8.87;3.17;;;;;;;21.28;98.86;99983.81;7429128;19;20530;-60
2022/05/23 11:59:11;;;;;;;8.43;2.87;;;;;;;21.62;97.53;99975.41;7418767;19;20420;-59
2022/05/23 12:01:41;;;;;;;10.43;2.77;;;;;;;21.64;98.45;99963.09;7427762;19;20769;-62
2022/05/23 12:04:28;;;;;;;7.63;2.57;;;;;;;21.42;96.56;99958.22;7419527;19;20426;-56
2022/05/23 12:06:58;;;;;;;8.37;3.20;;;;;;;21.43;93.86;99952.09;7429503;19;20450;-60
2022/05/23 12:09:38;;;;;;;9.27;2.80;;;;;;;21.66;95.96;99957.84;7424498;19;20410;-60
2022/05/23 12:12:54;;;;;;;7.97;2.60;;;;;;;21.93;93.34;99940.78;7426863;19;20386;-61
2022/05/23 12:15:49;;;;;;;8.80;2.60;;;;;;;21.44;96.00;99947.72;7429313;19;20407;-60
2022/05/23 12:18:35;;;;;;;6.30;2.77;;;;;;;21.42;94.81;99944.22;7424192;19;20429;-59
2022/05/23 12:21:08;;;;;;;9.10;3.40;;;;;;;21.29;93.07;99946.19;7427366;19;20437;-60
2022/05/23 12:23:41;;;;;;;10.27;3.00;;;;;;;21.59;94.54;99936.94;7421757;19;20402;-61
2022/05/23 12:26:27;;;;;;;8.77;2.50;;;;;;;21.94;92.25;99926.75;7429101;19;20387;-60
2022/05/23 12:28:59;;;;;;;4.73;2.30;;;;;;;22.25;89.46;99934.03;7421899;19;20791;-60
2022/05/23 12:31:30;;;;;;;9.33;4.57;;;;;;;22.29;88.58;99928.75;7429419;19;20402;-60
2022/05/23 12:34:12;;;;;;;8.60;4.13;;;;;;;23.00;88.38;99935.13;7422265;19;20438;-60
2022/05/23 12:36:50;;;;;;;4.90;2.37;;;;;;;23.16;84.94;99913.72;7428189;19;20386;-59
2022/05/23 12:39:41;;;;;;;7.50;3.67;;;;;;;23.45;87.80;99905.16;7427127;19;20788;-60
2022/05/23 12:42:24;;;;;;;4.60;2.40;;;;;;;23.92;82.76;99913.59;7429950;19;20395;-60
2022/05/23 12:45:15;;;;;;;8.13;2.50;;;;;;;23.35;83.38;99908.03;7430961;19;20441;-60
2022/05/23 12:47:57;;;;;;;15.77;7.73;;;;;;;24.31;83.84;99905.53;7424981;19;20453;-60
2022/05/23 12:50:32;;;;;;;5.53;2.53;;;;;;;24.28;79.98;99895.06;7431899;19;20389;-61
2022/05/23 12:53:17;;;;;;;7.73;2.97;;;;;;;24.31;79.96;99895.00;7419089;19;20458;-58
2022/05/23 12:55:58;;;;;;;7.27;3.00;;;;;;;24.17;81.83;99889.22;7401997;19;20398;-56
2022/05/23 12:58:41;;;;;;;5.90;2.50;;;;;;;24.16;79.60;99885.75;7397585;19;20453;-58
2022/05/23 13:01:13;;;;;;;13.60;4.00;;;;;;;24.50;78.84;99882.13;7402578;19;20396;-59
2022/05/23 13:03:54;;;;;;;8.80;3.40;;;;;;;24.12;81.83;99878.84;7396101;19;20437;-58
2022/05/23 13:06:28;;;;;;;8.23;2.83;;;;;;;23.66;83.00;99875.66;7402868;19;20404;-59
2022/05/23 13:09:03;;;;;;;11.77;5.40;;;;;;;24.26;83.55;99886.34;7396685;19;20439;-59